createdAt,value
2023-03-07T00:00:17.261Z,4.40
2023-03-07T00:01:28.625Z,3.58
2023-03-07T00:03:36.835Z,3.40
2023-03-07T00:04:39.400Z,3.30
2023-03-07T00:05:42.400Z,3.22
2023-03-07T00:06:44.851Z,3.78
2023-03-07T00:07:47.216Z,3.97
2023-03-07T00:08:54.089Z,3.50
2023-03-07T00:09:56.440Z,3.28
2023-03-07T00:11:03.726Z,4.22
2023-03-07T00:12:07.133Z,3.78
2023-03-07T00:13:09.431Z,3.25
2023-03-07T00:14:11.753Z,3.97
2023-03-07T00:15:14.089Z,3.70
2023-03-07T00:16:19.861Z,3.70
2023-03-07T00:17:22.260Z,3.83
2023-03-07T00:18:24.515Z,4.25
2023-03-07T00:19:26.994Z,3.50
2023-03-07T00:20:29.372Z,3.90
2023-03-07T00:21:32.281Z,4.22
2023-03-07T00:22:35.869Z,4.07
2023-03-07T00:23:40.282Z,4.20
2023-03-07T00:24:42.712Z,3.92
2023-03-07T00:25:45.370Z,4.05
2023-03-07T00:26:47.647Z,4.65
2023-03-07T00:27:49.914Z,4.00
2023-03-07T00:28:54.113Z,3.85
2023-03-07T00:29:56.388Z,3.83
2023-03-07T00:31:05.025Z,3.60
2023-03-07T00:32:07.555Z,4.13
2023-03-07T00:33:09.929Z,3.83
2023-03-07T00:34:12.264Z,3.58
2023-03-07T00:35:14.870Z,4.13
2023-03-07T00:36:19.770Z,3.92
2023-03-07T00:37:22.855Z,3.70
2023-03-07T00:38:25.885Z,3.70
2023-03-07T00:39:28.607Z,3.78
2023-03-07T00:40:30.929Z,3.92
2023-03-07T00:41:33.306Z,3.60
2023-03-07T00:42:35.667Z,3.70
2023-03-07T00:43:38.761Z,3.63
2023-03-07T00:44:41.422Z,4.03
2023-03-07T00:45:43.687Z,3.75
2023-03-07T00:46:46.016Z,3.67
2023-03-07T00:47:48.293Z,3.55
2023-03-07T00:48:51.061Z,3.58
2023-03-07T00:49:54.078Z,4.15
2023-03-07T00:50:57.157Z,3.75
2023-03-07T00:52:00.964Z,4.32
2023-03-07T00:53:04.538Z,3.45
2023-03-07T00:54:07.003Z,3.40
2023-03-07T00:55:10.539Z,3.58
2023-03-07T00:56:25.766Z,4.00
2023-03-07T00:57:28.088Z,3.35
2023-03-07T00:58:32.795Z,3.90
2023-03-07T00:59:35.168Z,3.95
2023-03-07T01:00:37.557Z,3.95
2023-03-07T01:01:39.887Z,3.78
2023-03-07T01:02:42.204Z,3.90
2023-03-07T01:03:44.975Z,4.03
2023-03-07T01:04:47.362Z,3.90
2023-03-07T01:05:50.464Z,3.50
2023-03-07T01:06:52.749Z,3.70
2023-03-07T01:07:55.066Z,3.97
2023-03-07T01:09:00.404Z,3.78
2023-03-07T01:10:02.871Z,4.00
2023-03-07T01:11:06.905Z,3.78
2023-03-07T01:12:09.527Z,4.20
2023-03-07T01:13:12.379Z,3.90
2023-03-07T01:14:14.776Z,3.30
2023-03-07T01:15:17.193Z,4.07
2023-03-07T01:16:22.213Z,3.83
2023-03-07T01:17:24.615Z,4.00
2023-03-07T01:18:26.893Z,3.80
2023-03-07T01:19:29.287Z,4.05
2023-03-07T01:20:33.807Z,4.03
2023-03-07T01:21:39.547Z,3.58
2023-03-07T01:22:42.045Z,4.03
2023-03-07T01:23:45.275Z,3.85
2023-03-07T01:24:47.709Z,3.42
2023-03-07T01:25:50.570Z,3.45
2023-03-07T01:26:53.357Z,3.33
2023-03-07T01:27:57.070Z,3.88
2023-03-07T01:29:04.659Z,4.07
2023-03-07T01:30:10.761Z,3.67
2023-03-07T01:31:14.211Z,3.88
2023-03-07T01:32:16.921Z,3.33
2023-03-07T01:33:19.501Z,3.72
2023-03-07T01:34:22.012Z,3.75
2023-03-07T01:35:26.975Z,4.32
2023-03-07T01:36:33.974Z,3.25
2023-03-07T01:37:42.678Z,4.15
2023-03-07T01:38:46.379Z,3.63
2023-03-07T01:39:52.149Z,4.03
2023-03-07T01:40:54.793Z,4.13
2023-03-07T01:41:57.127Z,3.88
2023-03-07T01:43:23.362Z,3.47
2023-03-07T01:44:29.322Z,3.40
2023-03-07T01:45:34.616Z,3.50
2023-03-07T01:46:59.842Z,4.00
2023-03-07T01:48:09.007Z,4.07
2023-03-07T01:49:22.661Z,3.78
2023-03-07T01:50:29.814Z,3.33
2023-03-07T01:51:34.248Z,3.78
2023-03-07T01:52:45.953Z,4.15
2023-03-07T01:53:51.235Z,3.90
2023-03-07T01:55:00.173Z,4.00
2023-03-07T01:56:02.975Z,3.97
2023-03-07T01:57:05.954Z,3.78
2023-03-07T01:58:12.461Z,4.20
2023-03-07T01:59:20.889Z,3.75
2023-03-07T02:00:28.791Z,3.45
2023-03-07T02:01:32.249Z,3.58
2023-03-07T02:02:36.398Z,3.53
2023-03-07T02:03:53.216Z,3.85
2023-03-07T02:05:10.019Z,4.57
2023-03-07T02:06:13.113Z,3.60
2023-03-07T02:07:17.716Z,3.65
2023-03-07T02:08:23.253Z,3.70
2023-03-07T02:09:25.977Z,4.00
2023-03-07T02:10:30.534Z,4.00
2023-03-07T02:11:33.713Z,3.67
2023-03-07T02:12:36.216Z,3.88
2023-03-07T02:13:38.869Z,3.72
2023-03-07T02:14:47.104Z,4.22
2023-03-07T02:15:52.246Z,3.65
2023-03-07T02:16:54.924Z,3.67
2023-03-07T02:17:58.790Z,3.63
2023-03-07T02:19:01.564Z,4.03
2023-03-07T02:20:21.691Z,3.80
2023-03-07T02:21:29.722Z,4.28
2023-03-07T02:22:32.195Z,4.05
2023-03-07T02:24:01.069Z,3.75
2023-03-07T02:25:42.263Z,3.78
2023-03-07T02:26:46.533Z,4.03
2023-03-07T02:27:51.268Z,4.18
2023-03-07T02:28:55.018Z,4.00
2023-03-07T02:29:57.488Z,3.97
2023-03-07T02:31:07.233Z,3.17
2023-03-07T02:32:12.049Z,4.00
2023-03-07T02:33:14.390Z,3.58
2023-03-07T02:34:29.093Z,4.07
2023-03-07T02:35:49.264Z,3.80
2023-03-07T02:36:58.787Z,3.80
2023-03-07T02:38:04.436Z,3.58
2023-03-07T02:39:06.957Z,3.97
2023-03-07T02:40:12.606Z,3.60
2023-03-07T02:41:19.662Z,3.47
2023-03-07T02:42:26.665Z,4.13
2023-03-07T02:43:45.000Z,3.38
2023-03-07T02:44:54.977Z,3.67
2023-03-07T02:45:57.403Z,3.90
2023-03-07T02:46:59.956Z,3.60
2023-03-07T02:48:03.574Z,3.58
2023-03-07T02:49:06.517Z,3.70
2023-03-07T02:50:10.000Z,3.78
2023-03-07T02:51:15.631Z,3.80
2023-03-07T02:52:21.538Z,3.83
2023-03-07T02:53:24.059Z,3.80
2023-03-07T02:54:26.813Z,4.32
2023-03-07T02:55:29.207Z,3.60
2023-03-07T02:56:36.572Z,3.90
2023-03-07T02:57:38.999Z,3.90
2023-03-07T02:58:42.197Z,3.92
2023-03-07T02:59:44.636Z,3.80
2023-03-07T03:00:46.964Z,4.25
2023-03-07T03:01:50.213Z,3.80
2023-03-07T03:02:52.614Z,4.10
2023-03-07T03:03:56.029Z,4.30
2023-03-07T03:04:58.395Z,4.15
2023-03-07T03:06:00.850Z,3.72
2023-03-07T03:07:03.406Z,3.88
2023-03-07T03:08:06.152Z,3.88
2023-03-07T03:09:08.472Z,3.58
2023-03-07T03:10:11.017Z,4.07
2023-03-07T03:11:13.439Z,3.63
2023-03-07T03:12:16.165Z,3.92
2023-03-07T03:13:20.086Z,3.90
2023-03-07T03:14:22.440Z,3.60
2023-03-07T03:15:25.510Z,3.60
2023-03-07T03:16:27.830Z,3.90
2023-03-07T03:17:30.235Z,3.80
2023-03-07T03:18:33.434Z,3.45
2023-03-07T03:19:35.905Z,4.20
2023-03-07T03:20:44.751Z,3.65
2023-03-07T03:21:47.813Z,3.90
2023-03-07T03:22:52.104Z,3.80
2023-03-07T03:23:54.972Z,3.63
2023-03-07T03:24:57.325Z,4.28
2023-03-07T03:26:00.866Z,4.00
2023-03-07T03:27:05.927Z,3.13
2023-03-07T03:28:08.485Z,3.53
2023-03-07T03:29:11.367Z,3.55
2023-03-07T03:30:15.612Z,4.00
2023-03-07T03:31:18.260Z,3.75
2023-03-07T03:32:20.638Z,3.50
2023-03-07T03:33:25.411Z,3.58
2023-03-07T03:34:28.278Z,3.90
2023-03-07T03:35:30.653Z,3.53
2023-03-07T03:36:33.060Z,3.53
2023-03-07T03:37:39.994Z,3.95
2023-03-07T03:38:42.464Z,3.42
2023-03-07T03:39:45.353Z,4.25
2023-03-07T03:40:49.036Z,3.95
2023-03-07T03:41:53.267Z,3.67
2023-03-07T03:42:57.620Z,3.75
2023-03-07T03:44:01.182Z,3.40
2023-03-07T03:45:06.212Z,3.70
2023-03-07T03:46:08.986Z,4.65
2023-03-07T03:47:13.285Z,3.50
2023-03-07T03:48:16.000Z,3.25
2023-03-07T03:49:19.631Z,3.53
2023-03-07T03:50:24.824Z,3.45
2023-03-07T03:51:27.473Z,3.70
2023-03-07T03:52:31.254Z,3.17
2023-03-07T03:53:35.739Z,3.92
2023-03-07T03:54:38.358Z,3.65
2023-03-07T03:55:40.684Z,3.40
2023-03-07T03:56:43.083Z,3.03
2023-03-07T03:57:45.406Z,3.75
2023-03-07T03:58:50.120Z,3.17
2023-03-07T03:59:52.583Z,3.60
2023-03-07T04:00:54.895Z,3.53
2023-03-07T04:01:57.325Z,19.05
2023-03-07T04:03:00.023Z,13.23
2023-03-07T04:04:04.763Z,17.45
2023-03-07T04:05:08.320Z,14.10
2023-03-07T04:06:13.235Z,11.10
2023-03-07T04:07:15.572Z,10.73
2023-03-07T04:08:17.902Z,9.57
2023-03-07T04:09:20.270Z,8.27
2023-03-07T04:10:23.539Z,8.75
2023-03-07T04:11:26.226Z,7.50
2023-03-07T04:12:28.585Z,6.80
2023-03-07T04:13:32.258Z,5.85
2023-03-07T04:14:34.702Z,4.95
2023-03-07T04:15:37.130Z,4.78
2023-03-07T04:16:39.728Z,6.10
2023-03-07T04:17:42.171Z,5.03
2023-03-07T04:18:44.825Z,4.45
2023-03-07T04:19:47.344Z,4.72
2023-03-07T04:20:51.519Z,3.95
2023-03-07T04:21:54.425Z,3.97
2023-03-07T04:22:56.673Z,3.70
2023-03-07T04:23:59.158Z,4.28
2023-03-07T04:25:06.965Z,3.35
2023-03-07T04:26:10.910Z,3.65
2023-03-07T04:27:13.915Z,3.33
2023-03-07T04:28:19.286Z,3.75
2023-03-07T04:29:21.648Z,3.72
2023-03-07T04:30:31.519Z,2.95
2023-03-07T04:31:33.922Z,3.10
2023-03-07T04:32:39.387Z,3.50
2023-03-07T04:33:42.502Z,2.80
2023-03-07T04:34:44.929Z,3.03
2023-03-07T04:35:47.455Z,4.72
2023-03-07T04:36:49.837Z,4.60
2023-03-07T04:37:52.137Z,5.82
2023-03-07T04:38:54.589Z,5.00
2023-03-07T04:39:56.949Z,4.25
2023-03-07T04:40:59.434Z,3.80
2023-03-07T04:42:02.095Z,3.65
2023-03-07T04:43:10.050Z,3.17
2023-03-07T04:44:12.529Z,3.63
2023-03-07T04:45:15.006Z,3.25
2023-03-07T04:46:19.082Z,3.22
2023-03-07T04:47:21.787Z,3.22
2023-03-07T04:48:24.166Z,3.60
2023-03-07T04:49:26.700Z,2.88
2023-03-07T04:50:29.745Z,3.08
2023-03-07T04:51:32.123Z,3.67
2023-03-07T04:52:34.567Z,3.80
2023-03-07T04:53:37.021Z,3.45
2023-03-07T04:54:40.751Z,2.92
2023-03-07T04:55:43.642Z,3.47
2023-03-07T04:56:46.014Z,3.33
2023-03-07T04:57:49.400Z,3.58
2023-03-07T04:58:51.816Z,3.15
2023-03-07T04:59:54.332Z,2.55
2023-03-07T05:00:58.479Z,2.88
2023-03-07T05:02:01.928Z,3.17
2023-03-07T05:03:07.640Z,3.28
2023-03-07T05:04:10.143Z,3.20
2023-03-07T05:05:14.093Z,3.25
2023-03-07T05:06:18.162Z,3.05
2023-03-07T05:07:29.860Z,2.90
2023-03-07T05:08:33.106Z,3.22
2023-03-07T05:09:35.937Z,2.97
2023-03-07T05:10:38.262Z,2.78
2023-03-07T05:11:40.518Z,3.05
2023-03-07T05:12:43.789Z,2.70
2023-03-07T05:13:47.267Z,3.05
2023-03-07T05:14:52.880Z,3.10
2023-03-07T05:15:57.217Z,3.08
2023-03-07T05:17:00.219Z,2.85
2023-03-07T05:18:03.451Z,2.72
2023-03-07T05:19:06.692Z,3.38
2023-03-07T05:20:10.873Z,2.55
2023-03-07T05:21:13.390Z,3.10
2023-03-07T05:22:15.957Z,10.23
2023-03-07T05:23:19.970Z,8.30
2023-03-07T05:24:24.413Z,7.93
2023-03-07T05:25:26.836Z,7.63
2023-03-07T05:26:29.140Z,5.70
2023-03-07T05:27:31.416Z,5.38
2023-03-07T05:28:34.124Z,4.70
2023-03-07T05:29:36.408Z,4.32
2023-03-07T05:30:38.802Z,4.47
2023-03-07T05:31:41.162Z,4.38
2023-03-07T05:32:44.016Z,4.13
2023-03-07T05:33:48.529Z,4.10
2023-03-07T05:34:50.911Z,3.80
2023-03-07T05:35:59.589Z,4.35
2023-03-07T05:37:01.938Z,3.35
2023-03-07T05:38:04.230Z,3.55
2023-03-07T05:39:07.604Z,3.13
2023-03-07T05:40:11.914Z,3.45
2023-03-07T05:41:17.862Z,3.47
2023-03-07T05:42:20.363Z,3.47
2023-03-07T05:43:23.841Z,3.75
2023-03-07T05:44:27.309Z,3.60
2023-03-07T05:45:31.338Z,4.00
2023-03-07T05:46:35.359Z,3.72
2023-03-07T05:47:39.147Z,3.03
2023-03-07T05:48:43.772Z,3.30
2023-03-07T05:49:46.395Z,3.33
2023-03-07T05:50:49.254Z,3.25
2023-03-07T05:51:53.185Z,3.35
2023-03-07T05:52:56.621Z,3.25
2023-03-07T05:54:01.989Z,2.85
2023-03-07T05:55:08.604Z,3.22
2023-03-07T05:56:10.976Z,3.03
2023-03-07T05:57:13.548Z,3.38
2023-03-07T05:58:16.877Z,3.13
2023-03-07T05:59:21.163Z,3.03
2023-03-07T06:00:25.764Z,2.88
2023-03-07T06:01:32.261Z,2.92
2023-03-07T06:02:34.677Z,3.30
2023-03-07T06:03:37.097Z,3.20
2023-03-07T06:04:39.436Z,3.42
2023-03-07T06:05:42.251Z,3.08
2023-03-07T06:06:44.890Z,3.08
2023-03-07T06:07:49.920Z,3.40
2023-03-07T06:08:52.755Z,3.00
2023-03-07T06:09:55.196Z,3.03
2023-03-07T06:10:57.488Z,2.90
2023-03-07T06:12:00.639Z,3.10
2023-03-07T06:13:02.991Z,2.83
2023-03-07T06:14:05.416Z,3.38
2023-03-07T06:15:08.924Z,2.97
2023-03-07T06:16:11.676Z,3.20
2023-03-07T06:17:16.373Z,3.20
2023-03-07T06:18:19.366Z,3.72
2023-03-07T06:19:21.972Z,8.10
2023-03-07T06:20:25.667Z,6.43
2023-03-07T06:21:30.513Z,5.70
2023-03-07T06:22:34.800Z,4.57
2023-03-07T06:23:38.280Z,4.13
2023-03-07T06:24:46.017Z,4.57
2023-03-07T06:25:49.346Z,4.03
2023-03-07T06:26:51.645Z,5.05
2023-03-07T06:28:00.762Z,3.85
2023-03-07T06:29:04.816Z,4.43
2023-03-07T06:30:09.228Z,5.05
2023-03-07T06:31:14.715Z,4.40
2023-03-07T06:32:17.281Z,4.82
2023-03-07T06:33:20.097Z,4.57
2023-03-07T06:34:22.441Z,4.38
2023-03-07T06:35:24.829Z,4.57
2023-03-07T06:36:27.183Z,3.88
2023-03-07T06:37:32.976Z,3.65
2023-03-07T06:38:36.939Z,3.85
2023-03-07T06:39:40.080Z,11.15
2023-03-07T06:40:43.238Z,8.95
2023-03-07T06:41:48.944Z,5.65
2023-03-07T06:42:53.411Z,4.75
2023-03-07T06:43:55.852Z,4.97
2023-03-07T06:45:04.563Z,4.95
2023-03-07T06:46:07.112Z,5.00
2023-03-07T06:47:13.555Z,4.88
2023-03-07T06:48:17.681Z,4.63
2023-03-07T06:49:20.008Z,4.47
2023-03-07T06:50:34.631Z,4.38
2023-03-07T06:51:38.168Z,4.25
2023-03-07T06:52:41.587Z,4.50
2023-03-07T06:53:44.618Z,5.00
2023-03-07T06:54:47.283Z,4.75
2023-03-07T06:55:51.528Z,4.65
2023-03-07T06:56:55.020Z,4.47
2023-03-07T06:57:58.677Z,4.50
2023-03-07T06:59:01.866Z,4.32
2023-03-07T07:00:05.766Z,4.30
2023-03-07T07:01:18.992Z,4.32
2023-03-07T07:02:23.810Z,4.20
2023-03-07T07:03:26.567Z,4.07
2023-03-07T07:04:29.455Z,4.20
2023-03-07T07:05:32.502Z,3.95
2023-03-07T07:06:34.908Z,3.55
2023-03-07T07:07:38.132Z,4.10
2023-03-07T07:08:40.801Z,3.90
2023-03-07T07:09:44.616Z,3.72
2023-03-07T07:10:47.236Z,4.38
2023-03-07T07:11:49.567Z,4.07
2023-03-07T07:12:56.527Z,3.95
2023-03-07T07:13:59.088Z,4.50
2023-03-07T07:15:05.560Z,4.72
2023-03-07T07:16:09.113Z,4.40
2023-03-07T07:17:13.837Z,5.03
2023-03-07T07:18:16.290Z,4.85
2023-03-07T07:19:18.657Z,5.35
2023-03-07T07:20:21.594Z,5.43
2023-03-07T07:21:23.938Z,4.45
2023-03-07T07:22:26.413Z,4.43
2023-03-07T07:23:29.034Z,4.72
2023-03-07T07:24:31.618Z,4.22
2023-03-07T07:25:34.144Z,4.63
2023-03-07T07:26:36.837Z,4.50
2023-03-07T07:27:39.283Z,4.45
2023-03-07T07:28:41.709Z,4.80
2023-03-07T07:29:45.106Z,4.40
2023-03-07T07:30:47.608Z,4.72
2023-03-07T07:31:51.831Z,4.95
2023-03-07T07:32:55.515Z,4.85
2023-03-07T07:33:58.638Z,4.05
2023-03-07T07:35:03.267Z,5.03
2023-03-07T07:36:07.663Z,4.70
2023-03-07T07:37:11.691Z,4.68
2023-03-07T07:38:14.604Z,4.40
2023-03-07T07:39:18.121Z,4.80
2023-03-07T07:40:22.694Z,4.07
2023-03-07T07:41:25.226Z,4.15
2023-03-07T07:42:32.218Z,4.28
2023-03-07T07:44:01.100Z,4.40
2023-03-07T07:45:11.257Z,4.40
2023-03-07T07:46:13.733Z,4.25
2023-03-07T07:47:16.108Z,4.70
2023-03-07T07:48:18.676Z,5.40
2023-03-07T07:49:21.812Z,4.55
2023-03-07T07:50:25.339Z,5.03
2023-03-07T07:51:27.932Z,4.55
2023-03-07T07:52:30.247Z,4.47
2023-03-07T07:53:32.751Z,4.32
2023-03-07T07:54:35.338Z,4.22
2023-03-07T07:55:37.798Z,4.78
2023-03-07T07:56:40.262Z,4.82
2023-03-07T07:57:42.841Z,5.10
2023-03-07T07:58:45.214Z,5.15
2023-03-07T07:59:47.668Z,5.43
2023-03-07T08:00:50.396Z,4.88
2023-03-07T08:01:53.244Z,5.00
2023-03-07T08:02:55.762Z,4.80
2023-03-07T08:03:58.169Z,4.82
2023-03-07T08:05:00.533Z,4.65
2023-03-07T08:06:02.840Z,5.07
2023-03-07T08:07:05.453Z,5.13
2023-03-07T08:08:07.699Z,5.10
2023-03-07T08:09:10.574Z,4.53
2023-03-07T08:10:15.949Z,4.35
2023-03-07T08:11:19.655Z,5.00
2023-03-07T08:12:22.093Z,4.13
2023-03-07T08:13:24.526Z,4.60
2023-03-07T08:14:26.828Z,5.28
2023-03-07T08:15:29.191Z,4.10
2023-03-07T08:16:31.735Z,4.78
2023-03-07T08:17:34.191Z,4.15
2023-03-07T08:18:36.520Z,4.35
2023-03-07T08:19:38.797Z,4.18
2023-03-07T08:20:41.430Z,4.70
2023-03-07T08:21:43.721Z,4.65
2023-03-07T08:22:48.965Z,4.47
2023-03-07T08:23:52.021Z,4.80
2023-03-07T08:24:54.641Z,4.47
2023-03-07T08:26:06.279Z,4.85
2023-03-07T08:27:09.447Z,4.63
2023-03-07T08:28:11.848Z,4.40
2023-03-07T08:29:14.270Z,4.45
2023-03-07T08:30:16.973Z,4.05
2023-03-07T08:31:23.598Z,5.05
2023-03-07T08:32:26.782Z,4.60
2023-03-07T08:33:29.157Z,4.82
2023-03-07T08:34:34.562Z,4.88
2023-03-07T08:35:36.911Z,4.50
2023-03-07T08:36:39.637Z,4.65
2023-03-07T08:37:42.068Z,4.50
2023-03-07T08:38:47.586Z,4.50
2023-03-07T08:39:49.970Z,4.63
2023-03-07T08:40:52.493Z,4.82
2023-03-07T08:41:55.640Z,4.45
2023-03-07T08:43:01.221Z,4.70
2023-03-07T08:44:03.668Z,4.95
2023-03-07T08:45:06.396Z,4.13
2023-03-07T08:46:08.864Z,4.57
2023-03-07T08:47:13.244Z,4.55
2023-03-07T08:48:15.744Z,4.50
2023-03-07T08:49:18.101Z,4.82
2023-03-07T08:50:22.228Z,5.03
2023-03-07T08:51:24.698Z,4.38
2023-03-07T08:52:27.294Z,5.13
2023-03-07T08:53:29.678Z,4.43
2023-03-07T08:54:32.481Z,5.10
2023-03-07T08:55:36.421Z,4.95
2023-03-07T08:56:39.027Z,3.90
2023-03-07T08:57:41.470Z,4.55
2023-03-07T08:58:44.099Z,4.63
2023-03-07T08:59:46.632Z,4.47
2023-03-07T09:00:49.086Z,4.63
2023-03-07T09:01:51.611Z,4.78
2023-03-07T09:02:54.384Z,4.43
2023-03-07T09:03:56.878Z,4.35
2023-03-07T09:04:59.396Z,5.07
2023-03-07T09:06:03.242Z,4.22
2023-03-07T09:07:05.713Z,4.75
2023-03-07T09:08:08.573Z,4.18
2023-03-07T09:09:11.015Z,4.80
2023-03-07T09:10:13.589Z,4.55
2023-03-07T09:11:18.206Z,4.60
2023-03-07T09:12:20.946Z,4.05
2023-03-07T09:13:23.639Z,4.38
2023-03-07T09:14:26.194Z,4.50
2023-03-07T09:15:28.773Z,3.88
2023-03-07T09:16:31.462Z,4.20
2023-03-07T09:17:33.989Z,4.35
2023-03-07T09:18:37.078Z,4.28
2023-03-07T09:19:39.605Z,3.78
2023-03-07T09:20:42.180Z,3.65
2023-03-07T09:21:44.706Z,4.20
2023-03-07T09:22:47.332Z,4.22
2023-03-07T09:23:49.932Z,4.63
2023-03-07T09:24:52.510Z,3.92
2023-03-07T09:25:55.240Z,4.00
2023-03-07T09:26:58.269Z,4.18
2023-03-07T09:28:00.944Z,4.40
2023-03-07T09:29:03.907Z,3.80
2023-03-07T09:30:07.345Z,3.95
2023-03-07T09:31:12.166Z,3.95
2023-03-07T09:32:15.066Z,3.75
2023-03-07T09:33:17.667Z,4.13
2023-03-07T09:34:20.427Z,4.28
2023-03-07T09:35:23.182Z,4.03
2023-03-07T09:36:25.664Z,4.10
2023-03-07T09:37:28.289Z,4.20
2023-03-07T09:38:30.805Z,4.25
2023-03-07T09:39:33.731Z,4.25
2023-03-07T09:40:37.466Z,4.35
2023-03-07T09:42:06.904Z,3.97
2023-03-07T09:43:34.511Z,4.10
2023-03-07T09:45:07.987Z,4.22
2023-03-07T09:46:46.037Z,3.85
2023-03-07T09:48:24.934Z,4.18
2023-03-07T09:49:27.243Z,3.90
2023-03-07T09:50:41.083Z,3.92
2023-03-07T09:51:45.735Z,4.07
2023-03-07T09:52:48.052Z,4.32
2023-03-07T09:53:57.742Z,3.88
2023-03-07T09:55:05.775Z,4.03
2023-03-07T09:56:30.124Z,4.22
2023-03-07T09:57:39.527Z,3.63
2023-03-07T09:58:47.226Z,4.85
2023-03-07T09:59:55.364Z,3.95
2023-03-07T10:01:01.399Z,3.83
2023-03-07T10:02:54.363Z,3.63
2023-03-07T10:04:12.640Z,4.00
2023-03-07T10:05:31.786Z,3.53
2023-03-07T10:06:43.149Z,4.13
2023-03-07T10:08:47.621Z,4.05
2023-03-07T10:09:55.460Z,4.30
2023-03-07T10:11:27.848Z,4.03
2023-03-07T10:13:00.803Z,4.00
2023-03-07T10:14:28.060Z,4.13
2023-03-07T10:15:51.854Z,3.30
2023-03-07T10:17:35.160Z,3.53
2023-03-07T10:18:52.828Z,3.88
2023-03-07T10:20:20.692Z,4.40
2023-03-07T10:21:27.928Z,3.13
2023-03-07T10:22:43.682Z,3.95
2023-03-07T10:24:00.547Z,3.95
2023-03-07T10:25:06.166Z,3.47
2023-03-07T10:26:20.409Z,3.47
2023-03-07T10:27:28.617Z,3.88
2023-03-07T10:28:33.851Z,3.78
2023-03-07T10:29:51.266Z,3.78
2023-03-07T10:31:01.048Z,4.10
2023-03-07T10:32:27.278Z,3.58
2023-03-07T10:33:31.429Z,3.63
2023-03-07T10:34:34.390Z,4.03
2023-03-07T10:35:43.004Z,3.42
2023-03-07T10:36:51.575Z,4.10
2023-03-07T10:38:05.823Z,3.75
2023-03-07T10:39:49.536Z,4.13
2023-03-07T10:40:58.916Z,3.83
2023-03-07T10:42:02.012Z,3.67
2023-03-07T10:43:06.014Z,3.95
2023-03-07T10:44:15.852Z,3.40
2023-03-07T10:45:18.833Z,3.40
2023-03-07T10:46:27.492Z,3.30
2023-03-07T10:47:30.715Z,3.80
2023-03-07T10:48:37.433Z,3.45
2023-03-07T10:49:45.824Z,4.18
2023-03-07T10:51:07.087Z,3.88
2023-03-07T10:52:21.852Z,3.70
2023-03-07T10:53:32.026Z,3.38
2023-03-07T10:54:37.093Z,3.50
2023-03-07T10:55:44.646Z,3.65
2023-03-07T10:57:17.063Z,3.88
2023-03-07T10:58:25.986Z,3.20
2023-03-07T10:59:28.941Z,3.80
2023-03-07T11:00:31.688Z,3.60
2023-03-07T11:01:34.722Z,3.83
2023-03-07T11:02:45.554Z,2.95
2023-03-07T11:03:58.620Z,3.22
2023-03-07T11:05:02.906Z,3.47
2023-03-07T11:06:07.240Z,3.13
2023-03-07T11:07:24.376Z,3.53
2023-03-07T11:08:31.481Z,3.60
2023-03-07T11:09:47.706Z,4.05
2023-03-07T11:10:50.080Z,3.78
2023-03-07T11:12:06.832Z,3.10
2023-03-07T11:13:19.850Z,3.42
2023-03-07T11:14:23.430Z,4.40
2023-03-07T11:15:27.369Z,6.60
2023-03-07T11:16:29.834Z,5.63
2023-03-07T11:17:47.579Z,4.15
2023-03-07T11:18:50.118Z,3.42
2023-03-07T11:19:55.091Z,4.13
2023-03-07T11:20:59.135Z,3.90
2023-03-07T11:22:29.691Z,4.13
2023-03-07T11:23:32.644Z,4.32
2023-03-07T11:24:39.510Z,3.53
2023-03-07T11:25:41.912Z,3.63
2023-03-07T11:26:45.028Z,3.50
2023-03-07T11:27:56.899Z,4.07
2023-03-07T11:29:11.210Z,3.65
2023-03-07T11:30:25.041Z,3.75
2023-03-07T11:31:49.953Z,3.83
2023-03-07T11:33:21.840Z,3.45
2023-03-07T11:35:06.348Z,4.15
2023-03-07T11:36:15.634Z,3.33
2023-03-07T11:37:38.647Z,4.40
2023-03-07T11:38:58.961Z,3.95
2023-03-07T11:40:24.387Z,3.03
2023-03-07T11:41:33.919Z,3.10
2023-03-07T11:42:44.908Z,3.75
2023-03-07T11:44:00.852Z,3.83
2023-03-07T11:45:43.304Z,3.60
2023-03-07T11:47:07.267Z,3.38
2023-03-07T11:48:31.307Z,3.55
2023-03-07T11:49:39.079Z,3.40
2023-03-07T11:50:48.911Z,4.18
2023-03-07T11:52:27.196Z,3.80
2023-03-07T11:53:52.499Z,3.92
2023-03-07T11:55:16.123Z,18.05
2023-03-07T11:56:38.588Z,34.92
2023-03-07T11:57:49.826Z,30.95
2023-03-07T11:59:16.379Z,31.05
2023-03-07T12:00:34.683Z,21.20
2023-03-07T12:01:55.682Z,15.82
2023-03-07T12:03:42.956Z,9.60
2023-03-07T12:04:58.110Z,7.88
2023-03-07T12:06:13.679Z,7.40
2023-03-07T12:07:44.558Z,7.10
2023-03-07T12:09:09.986Z,7.53
2023-03-07T12:10:38.099Z,7.05
2023-03-07T12:11:40.418Z,6.30
2023-03-07T12:13:03.088Z,5.70
2023-03-07T12:14:42.703Z,5.95
2023-03-07T12:16:19.807Z,5.20
2023-03-07T12:17:28.567Z,4.30
2023-03-07T12:18:58.963Z,4.28
2023-03-07T12:20:30.514Z,4.45
2023-03-07T12:22:01.551Z,5.35
2023-03-07T12:23:08.006Z,5.55
2023-03-07T12:24:28.017Z,5.57
2023-03-07T12:25:42.872Z,4.80
2023-03-07T12:26:59.615Z,5.30
2023-03-07T12:28:13.253Z,5.75
2023-03-07T12:29:38.375Z,5.07
2023-03-07T12:31:08.428Z,5.70
2023-03-07T12:32:19.814Z,5.15
2023-03-07T12:33:46.989Z,5.00
2023-03-07T12:35:30.824Z,5.32
2023-03-07T12:36:40.880Z,5.32
2023-03-07T12:38:05.857Z,4.72
2023-03-07T12:39:38.956Z,4.05
2023-03-07T12:40:56.270Z,27.25
2023-03-07T12:42:04.814Z,17.02
2023-03-07T12:43:16.318Z,9.02
2023-03-07T12:44:44.281Z,15.98
2023-03-07T12:46:21.566Z,27.42
2023-03-07T12:47:38.951Z,30.23
2023-03-07T12:48:50.898Z,33.17
2023-03-07T12:50:02.306Z,34.17
2023-03-07T12:52:43.378Z,24.20
2023-03-07T12:54:33.048Z,20.08
2023-03-07T12:55:46.271Z,16.23
2023-03-07T12:57:02.000Z,17.70
2023-03-07T12:58:25.019Z,16.52
2023-03-07T12:59:29.171Z,16.77
2023-03-07T13:00:35.514Z,16.10
2023-03-07T13:02:00.395Z,14.13
2023-03-07T13:03:06.605Z,17.30
2023-03-07T13:04:31.995Z,15.68
2023-03-07T13:05:37.088Z,16.25
2023-03-07T13:06:41.677Z,14.60
2023-03-07T13:07:44.589Z,15.80
2023-03-07T13:08:49.702Z,14.75
2023-03-07T13:09:54.605Z,15.35
2023-03-07T13:10:57.141Z,16.08
2023-03-07T13:12:20.150Z,13.05
2023-03-07T13:13:41.137Z,9.90
2023-03-07T13:15:07.994Z,16.30
2023-03-07T13:16:31.368Z,15.18
2023-03-07T13:17:33.802Z,14.23
2023-03-07T13:18:36.336Z,14.45
2023-03-07T13:19:39.307Z,13.82
2023-03-07T13:20:43.039Z,13.32
2023-03-07T13:21:45.747Z,12.18
2023-03-07T13:22:48.033Z,12.63
2023-03-07T13:24:10.344Z,12.60
2023-03-07T13:25:36.732Z,12.52
2023-03-07T13:26:39.165Z,12.40
2023-03-07T13:27:41.466Z,11.82
2023-03-07T13:28:46.024Z,10.45
2023-03-07T13:30:21.545Z,11.80
2023-03-07T13:31:28.998Z,11.32
2023-03-07T13:32:49.490Z,9.90
2023-03-07T13:33:51.954Z,10.00
2023-03-07T13:34:54.267Z,11.02
2023-03-07T13:35:59.010Z,11.27
2023-03-07T13:37:39.599Z,9.60
2023-03-07T13:38:44.796Z,10.77
2023-03-07T13:40:02.705Z,10.10
2023-03-07T13:41:05.920Z,10.73
2023-03-07T13:42:46.775Z,10.73
2023-03-07T13:43:48.993Z,10.18
2023-03-07T13:44:51.679Z,10.13
2023-03-07T13:45:59.198Z,10.15
2023-03-07T13:47:02.688Z,10.45
2023-03-07T13:48:15.573Z,9.90
2023-03-07T13:49:39.101Z,8.75
2023-03-07T13:50:56.027Z,10.50
2023-03-07T13:52:27.105Z,9.52
2023-03-07T13:53:50.900Z,8.98
2023-03-07T13:54:53.665Z,8.35
2023-03-07T13:56:09.033Z,8.75
2023-03-07T13:57:18.840Z,7.85
2023-03-07T13:58:27.098Z,8.85
2023-03-07T13:59:29.478Z,8.45
2023-03-07T14:00:37.343Z,8.98
2023-03-07T14:01:40.641Z,7.82
2023-03-07T14:02:44.053Z,8.05
2023-03-07T14:03:54.234Z,8.38
2023-03-07T14:04:58.166Z,7.80
2023-03-07T14:06:08.062Z,7.72
2023-03-07T14:07:21.228Z,7.00
2023-03-07T14:08:29.857Z,6.18
2023-03-07T14:09:39.863Z,6.90
2023-03-07T14:10:46.338Z,7.07
2023-03-07T14:12:22.042Z,7.57
2023-03-07T14:14:02.510Z,7.63
2023-03-07T14:15:23.177Z,7.35
2023-03-07T14:16:47.198Z,6.93
2023-03-07T14:18:35.491Z,6.80
2023-03-07T14:19:37.806Z,9.93
2023-03-07T14:21:10.703Z,8.20
2023-03-07T14:22:27.140Z,14.65
2023-03-07T14:23:47.367Z,9.82
2023-03-07T14:24:56.947Z,9.00
2023-03-07T14:26:14.851Z,8.48
2023-03-07T14:27:17.466Z,7.50
2023-03-07T14:28:29.341Z,7.25
2023-03-07T14:29:31.906Z,7.70
2023-03-07T14:30:34.429Z,7.70
2023-03-07T14:31:40.124Z,7.15
2023-03-07T14:32:42.524Z,7.03
2023-03-07T14:33:44.929Z,7.18
2023-03-07T14:34:49.160Z,7.00
2023-03-07T14:35:51.735Z,6.63
2023-03-07T14:36:59.352Z,6.95
2023-03-07T14:38:02.252Z,6.45
2023-03-07T14:39:06.538Z,6.65
2023-03-07T14:40:30.433Z,6.63
2023-03-07T14:42:10.771Z,6.60
2023-03-07T14:43:31.288Z,5.90
2023-03-07T14:45:01.313Z,5.60
2023-03-07T14:46:18.009Z,6.32
2023-03-07T14:47:23.609Z,5.78
2023-03-07T14:48:40.845Z,6.90
2023-03-07T14:49:58.702Z,6.00
2023-03-07T14:51:21.677Z,6.25
2023-03-07T14:52:31.356Z,6.35
2023-03-07T14:53:35.200Z,6.53
2023-03-07T14:54:37.660Z,6.18
2023-03-07T14:55:46.142Z,5.85
2023-03-07T14:56:52.625Z,6.40
2023-03-07T14:57:55.496Z,6.20
2023-03-07T14:59:03.092Z,6.70
2023-03-07T15:00:05.833Z,5.93